createdAt,value
2023-05-11T00:00:13.958Z,13.11
2023-05-11T00:05:16.914Z,13.14
2023-05-11T00:10:20.082Z,13.17
2023-05-11T00:15:24.504Z,13.12
2023-05-11T00:20:27.198Z,13.14
2023-05-11T00:25:29.925Z,13.03
2023-05-11T00:30:34.376Z,13.02
2023-05-11T00:35:37.922Z,12.91
2023-05-11T00:40:40.859Z,12.95
2023-05-11T00:45:47.949Z,12.99
2023-05-11T00:50:52.764Z,13.02
2023-05-11T00:55:56.035Z,13.03
2023-05-11T01:01:00.473Z,13.02
2023-05-11T01:06:09.571Z,12.96
2023-05-11T01:11:17.507Z,13.08
2023-05-11T01:16:24.558Z,13.04
2023-05-11T01:21:33.277Z,13.03
2023-05-11T01:26:45.098Z,13.12
2023-05-11T01:31:50.479Z,13.07
2023-05-11T01:36:56.116Z,13.09
2023-05-11T01:41:59.972Z,13.05
2023-05-11T01:47:04.840Z,13.08
2023-05-11T01:52:08.681Z,13.04
2023-05-11T01:57:13.519Z,13.05
2023-05-11T02:02:18.979Z,13.09
2023-05-11T02:07:22.648Z,13.12
2023-05-11T02:12:26.786Z,13.04
2023-05-11T02:17:31.645Z,13.06
2023-05-11T02:22:34.816Z,13.04
2023-05-11T02:27:37.585Z,13.08
2023-05-11T02:32:45.596Z,13.03
2023-05-11T02:37:50.899Z,13.05
2023-05-11T02:42:57.868Z,13.11
2023-05-11T02:48:06.188Z,13.08
2023-05-11T02:53:12.801Z,12.94
2023-05-11T02:58:16.563Z,13.03
2023-05-11T03:03:24.587Z,13.02
2023-05-11T03:08:27.790Z,13.01
2023-05-11T03:13:30.846Z,12.97
2023-05-11T03:18:37.410Z,12.97
2023-05-11T03:23:40.853Z,12.92
2023-05-11T03:28:45.013Z,12.91
2023-05-11T03:33:49.406Z,12.77
2023-05-11T03:38:54.171Z,12.81
2023-05-11T03:43:58.109Z,12.84
2023-05-11T03:49:02.553Z,12.89
2023-05-11T03:54:07.675Z,12.89
2023-05-11T03:59:16.078Z,12.94
2023-05-11T04:04:20.506Z,12.96
2023-05-11T04:09:23.923Z,12.95
2023-05-11T04:14:28.466Z,12.90
2023-05-11T04:19:32.607Z,12.97
2023-05-11T04:24:35.362Z,12.92
2023-05-11T04:29:38.164Z,12.90
2023-05-11T04:34:42.487Z,12.93
2023-05-11T04:39:46.092Z,12.91
2023-05-11T04:44:49.047Z,12.96
2023-05-11T04:49:55.635Z,12.96
2023-05-11T04:54:58.777Z,12.98
2023-05-11T05:00:01.696Z,13.08
2023-05-11T05:05:06.988Z,13.08
2023-05-11T05:10:11.990Z,13.06
2023-05-11T05:15:14.837Z,13.12
2023-05-11T05:20:19.308Z,13.12
2023-05-11T05:25:23.232Z,13.23
2023-05-11T05:30:26.166Z,13.16
2023-05-11T05:35:30.343Z,13.17
2023-05-11T05:40:37.473Z,13.31
2023-05-11T05:45:40.418Z,13.34
2023-05-11T05:50:44.683Z,13.42
2023-05-11T05:55:47.534Z,13.20
2023-05-11T06:00:50.602Z,13.37
2023-05-11T06:05:55.089Z,13.31
2023-05-11T06:10:57.929Z,13.33
2023-05-11T06:16:00.838Z,13.43
2023-05-11T06:21:09.750Z,13.54
2023-05-11T06:26:12.811Z,13.54
2023-05-11T06:31:16.429Z,13.48
2023-05-11T06:36:21.562Z,13.52
2023-05-11T06:41:24.551Z,13.49
2023-05-11T06:46:28.468Z,13.52
2023-05-11T06:51:32.634Z,13.66
2023-05-11T06:56:35.390Z,13.67
2023-05-11T07:01:38.529Z,13.60
2023-05-11T07:06:42.762Z,13.77
2023-05-11T07:11:45.600Z,13.83
2023-05-11T07:16:48.833Z,13.97
2023-05-11T07:21:53.041Z,14.38
2023-05-11T07:26:57.311Z,14.53
2023-05-11T07:32:00.117Z,14.69
2023-05-11T07:37:04.258Z,14.47
2023-05-11T07:42:07.153Z,14.37
2023-05-11T07:47:10.472Z,14.11
2023-05-11T07:52:14.618Z,14.40
2023-05-11T07:57:17.559Z,14.26
2023-05-11T08:02:20.403Z,14.39
2023-05-11T08:07:24.768Z,14.41
2023-05-11T08:12:27.532Z,14.38
2023-05-11T08:17:30.351Z,14.43
2023-05-11T08:22:34.548Z,14.53
2023-05-11T08:27:37.307Z,14.58
2023-05-11T08:37:47.510Z,14.40
2023-05-11T08:42:50.748Z,14.42
2023-05-11T08:47:54.311Z,14.37
2023-05-11T08:52:58.416Z,14.30
2023-05-11T08:58:01.980Z,14.32
2023-05-11T09:03:05.390Z,14.37
2023-05-11T09:08:09.867Z,14.31
2023-05-11T09:13:13.011Z,14.30
2023-05-11T09:18:15.776Z,14.21
2023-05-11T09:23:20.349Z,14.20
2023-05-11T09:28:25.540Z,14.20
2023-05-11T09:33:28.806Z,14.23
2023-05-11T09:38:33.043Z,14.20
2023-05-11T09:43:35.785Z,14.31
2023-05-11T09:48:38.528Z,14.29
2023-05-11T09:53:45.479Z,14.42
2023-05-11T09:58:50.207Z,14.45
2023-05-11T10:04:02.750Z,14.60
2023-05-11T10:09:14.328Z,14.47
2023-05-11T10:14:17.604Z,14.57
2023-05-11T10:19:20.560Z,14.74
2023-05-11T10:24:24.885Z,14.68
2023-05-11T10:29:27.760Z,14.77
2023-05-11T10:34:30.511Z,14.83
2023-05-11T10:39:38.519Z,14.98
2023-05-11T10:45:05.605Z,15.02
2023-05-11T10:50:27.070Z,14.95
2023-05-11T10:55:40.075Z,14.98
2023-05-11T11:01:19.914Z,15.10
2023-05-11T11:06:23.829Z,14.96
2023-05-11T11:11:32.763Z,15.32
2023-05-11T11:16:36.078Z,15.62
2023-05-11T11:21:44.124Z,15.76
2023-05-11T11:26:50.528Z,15.62
2023-05-11T11:31:53.244Z,15.60
2023-05-11T11:37:03.963Z,16.00
2023-05-11T11:42:09.589Z,15.74
2023-05-11T11:47:13.242Z,15.83
2023-05-11T11:52:33.889Z,15.71
2023-05-11T11:57:49.260Z,15.28
2023-05-11T12:02:52.244Z,15.10
2023-05-11T12:07:55.050Z,14.62
2023-05-11T12:13:00.087Z,14.72
2023-05-11T12:18:03.370Z,14.36
2023-05-11T12:23:06.212Z,14.03
2023-05-11T12:28:12.483Z,14.41
2023-05-11T12:33:16.238Z,14.40
2023-05-11T12:38:19.378Z,14.21
2023-05-11T12:43:24.159Z,14.55
2023-05-11T12:48:26.938Z,14.90
2023-05-11T12:53:36.143Z,14.39
2023-05-11T12:58:41.702Z,14.95
2023-05-11T13:03:47.440Z,15.08
2023-05-11T13:08:50.927Z,14.47
2023-05-11T13:13:56.982Z,15.11
2023-05-11T13:19:01.159Z,15.05
2023-05-11T13:24:04.395Z,15.12
2023-05-11T13:29:10.840Z,15.16
2023-05-11T13:34:14.099Z,15.32
2023-05-11T13:39:16.851Z,15.26
2023-05-11T13:44:20.972Z,15.37
2023-05-11T13:49:23.687Z,14.62
2023-05-11T13:54:26.672Z,15.13
2023-05-11T13:59:30.749Z,15.10
2023-05-11T14:04:33.475Z,14.74
2023-05-11T14:09:37.044Z,14.46
2023-05-11T14:14:41.266Z,14.78
2023-05-11T14:19:44.138Z,14.29
2023-05-11T14:24:46.998Z,14.80
2023-05-11T14:29:52.118Z,15.11
2023-05-11T14:34:55.011Z,15.04
2023-05-11T14:39:57.746Z,15.09
2023-05-11T14:45:01.785Z,14.97
2023-05-11T14:50:04.812Z,14.87
2023-05-11T14:55:08.933Z,15.02
2023-05-11T15:00:14.440Z,14.98
2023-05-11T15:05:17.503Z,14.84
2023-05-11T15:10:20.503Z,15.06
2023-05-11T15:15:24.582Z,15.20
2023-05-11T15:20:27.313Z,14.96
2023-05-11T15:25:30.027Z,14.83
2023-05-11T15:30:34.078Z,15.00
2023-05-11T15:35:37.198Z,15.16
2023-05-11T15:40:39.963Z,15.17
2023-05-11T15:45:44.193Z,14.97
2023-05-11T15:50:47.526Z,15.06
2023-05-11T15:55:51.321Z,15.13
2023-05-11T16:00:58.016Z,14.93
2023-05-11T16:06:01.411Z,14.65
2023-05-11T16:11:04.215Z,14.65
2023-05-11T16:16:08.573Z,14.81
2023-05-11T16:21:11.310Z,14.86
2023-05-11T16:26:14.214Z,14.38
2023-05-11T16:31:18.331Z,14.29
2023-05-11T16:36:21.256Z,14.54
2023-05-11T16:41:25.281Z,14.46
2023-05-11T16:46:29.710Z,14.39
2023-05-11T16:51:33.876Z,14.52
2023-05-11T16:56:36.624Z,14.24
2023-05-11T17:01:40.769Z,14.46
2023-05-11T17:06:43.581Z,14.15
2023-05-11T17:11:46.316Z,14.13
2023-05-11T17:16:50.446Z,14.06
2023-05-11T17:21:53.178Z,14.11
2023-05-11T17:26:55.908Z,13.95
2023-05-11T17:32:00.286Z,13.77
2023-05-11T17:37:03.699Z,14.05
2023-05-11T17:42:07.003Z,13.92
2023-05-11T17:47:11.185Z,14.02
2023-05-11T17:52:13.914Z,14.12
2023-05-11T17:57:16.654Z,14.11
2023-05-11T18:02:20.813Z,14.05
2023-05-11T18:07:23.587Z,14.02
2023-05-11T18:12:26.341Z,14.04
2023-05-11T18:17:30.532Z,14.03
2023-05-11T18:22:33.995Z,13.98
2023-05-11T18:27:36.791Z,13.97
2023-05-11T18:32:40.938Z,14.06
2023-05-11T18:37:44.015Z,13.81
2023-05-11T18:42:47.180Z,13.82
2023-05-11T18:47:51.412Z,13.61
2023-05-11T18:52:54.191Z,13.68
2023-05-11T18:57:58.204Z,13.41
2023-05-11T19:03:02.339Z,13.54
2023-05-11T19:08:05.493Z,13.52
2023-05-11T19:13:08.719Z,13.54
2023-05-11T19:18:12.861Z,13.49
2023-05-11T19:23:15.816Z,13.52
2023-05-11T19:28:18.567Z,13.37
2023-05-11T19:33:22.700Z,13.23
2023-05-11T19:38:25.560Z,13.36
2023-05-11T19:43:28.294Z,13.40
2023-05-11T19:48:32.442Z,13.28
2023-05-11T19:53:35.282Z,13.31
2023-05-11T19:58:38.068Z,13.22
2023-05-11T20:03:42.464Z,13.25
2023-05-11T20:08:47.904Z,13.31
2023-05-11T20:13:52.869Z,13.34
2023-05-11T20:18:59.205Z,13.44
2023-05-11T20:24:02.273Z,13.41
2023-05-11T20:29:06.720Z,13.38
2023-05-11T20:34:10.955Z,13.44
2023-05-11T20:39:13.951Z,13.46
2023-05-11T20:44:17.522Z,13.45
2023-05-11T20:49:37.425Z,13.50
2023-05-11T20:54:41.464Z,13.47
2023-05-11T21:04:51.315Z,13.44
2023-05-11T21:09:54.643Z,13.48
2023-05-11T21:14:57.413Z,13.46
2023-05-11T21:20:01.528Z,13.48
2023-05-11T21:25:04.932Z,13.40
2023-05-11T21:30:09.906Z,13.44
2023-05-11T21:35:15.044Z,13.44
2023-05-11T21:40:18.511Z,13.41
2023-05-11T21:45:21.692Z,13.42
2023-05-11T21:50:25.902Z,13.41
2023-05-11T21:55:28.656Z,13.39
2023-05-11T22:00:32.946Z,13.40
2023-05-11T22:05:37.094Z,13.39
2023-05-11T22:10:39.830Z,13.37
2023-05-11T22:15:42.593Z,13.38
2023-05-11T22:20:46.646Z,13.39
2023-05-11T22:25:49.316Z,13.38
2023-05-11T22:30:51.986Z,13.38
2023-05-11T22:35:56.028Z,13.32
2023-05-11T22:40:58.702Z,13.29
2023-05-11T22:46:01.428Z,13.28
2023-05-11T22:51:06.299Z,13.27
2023-05-11T22:56:09.199Z,13.31
2023-05-11T23:01:12.368Z,13.28
2023-05-11T23:06:16.479Z,13.24
2023-05-11T23:11:19.187Z,13.24
2023-05-11T23:16:22.274Z,13.25
2023-05-11T23:21:26.396Z,13.16
2023-05-11T23:26:29.073Z,13.07
2023-05-11T23:31:32.677Z,13.10
2023-05-11T23:36:36.845Z,13.09
2023-05-11T23:41:39.557Z,12.95
2023-05-11T23:46:42.268Z,12.90
2023-05-11T23:51:46.390Z,12.92
2023-05-11T23:56:49.161Z,12.91
